createdAt,value
2018-05-15T00:00:54.772Z,5.48
2018-05-15T00:01:55.244Z,5.48
2018-05-15T00:02:55.715Z,5.46
2018-05-15T00:03:56.182Z,5.46
2018-05-15T00:04:56.654Z,5.46
2018-05-15T00:05:57.125Z,5.44
2018-05-15T00:06:57.597Z,5.42
2018-05-15T00:07:58.066Z,5.42
2018-05-15T00:08:58.541Z,5.39
2018-05-15T00:09:59.008Z,5.39
2018-05-15T00:10:59.486Z,5.39
2018-05-15T00:12:00.005Z,5.37
2018-05-15T00:13:00.426Z,5.36
2018-05-15T00:14:00.905Z,5.36
2018-05-15T00:15:01.366Z,5.35
2018-05-15T00:16:01.836Z,5.34
2018-05-15T00:17:02.360Z,5.32
2018-05-15T00:18:02.779Z,5.32
2018-05-15T00:19:03.250Z,5.32
2018-05-15T00:20:03.722Z,5.31
2018-05-15T00:21:04.193Z,5.32
2018-05-15T00:22:04.717Z,5.30
2018-05-15T00:23:05.138Z,5.30
2018-05-15T00:25:06.083Z,5.29
2018-05-15T00:26:06.555Z,5.28
2018-05-15T00:27:07.027Z,5.26
2018-05-15T00:28:07.499Z,5.26
2018-05-15T00:29:07.971Z,5.26
2018-05-15T00:30:08.446Z,5.24
2018-05-15T00:31:08.927Z,5.22
2018-05-15T00:32:09.388Z,5.22
2018-05-15T00:33:09.866Z,5.22
2018-05-15T00:34:10.335Z,5.21
2018-05-15T00:35:10.808Z,5.21
2018-05-15T00:36:11.280Z,5.20
2018-05-15T00:37:11.958Z,5.19
2018-05-15T00:38:12.229Z,5.16
2018-05-15T00:39:12.703Z,5.16
2018-05-15T00:40:13.177Z,5.16
2018-05-15T00:41:13.648Z,5.14
2018-05-15T00:42:14.122Z,5.15
2018-05-15T00:43:14.597Z,5.12
2018-05-15T00:44:15.070Z,5.12
2018-05-15T00:45:15.550Z,5.12
2018-05-15T00:46:16.017Z,5.10
2018-05-15T00:47:16.545Z,5.11
2018-05-15T00:48:16.965Z,5.10
2018-05-15T00:49:17.440Z,5.08
2018-05-15T00:50:17.914Z,5.08
2018-05-15T00:51:18.389Z,5.09
2018-05-15T00:52:18.860Z,5.08
2018-05-15T00:53:19.336Z,5.06
2018-05-15T00:54:19.813Z,5.06
2018-05-15T00:55:20.284Z,5.04
2018-05-15T00:57:21.275Z,5.02
2018-05-15T00:58:21.706Z,5.02
2018-05-15T00:59:22.183Z,5.00
2018-05-15T01:00:22.654Z,4.99
2018-05-15T01:01:23.132Z,5.00
2018-05-15T01:02:23.655Z,4.98
2018-05-15T01:03:24.081Z,4.97
2018-05-15T01:04:24.549Z,4.96
2018-05-15T01:05:25.021Z,4.96
2018-05-15T01:06:25.495Z,4.94
2018-05-15T01:07:25.967Z,4.94
2018-05-15T01:08:26.442Z,4.94
2018-05-15T01:09:26.911Z,4.92
2018-05-15T01:10:27.387Z,4.92
2018-05-15T01:11:27.856Z,4.90
2018-05-15T01:12:28.331Z,4.89
2018-05-15T01:14:29.271Z,4.88
2018-05-15T01:15:29.742Z,4.86
2018-05-15T01:16:30.210Z,4.86
2018-05-15T01:17:30.732Z,4.86
2018-05-15T01:18:31.154Z,4.86
2018-05-15T01:19:31.625Z,4.84
2018-05-15T01:20:32.093Z,4.86
2018-05-15T01:21:32.565Z,4.84
2018-05-15T01:22:33.037Z,4.83
2018-05-15T01:23:33.512Z,4.84
2018-05-15T01:24:33.977Z,4.82
2018-05-15T01:25:34.449Z,4.80
2018-05-15T01:26:34.918Z,4.80
2018-05-15T01:27:35.394Z,4.79
2018-05-15T01:28:35.857Z,4.80
2018-05-15T01:29:36.330Z,4.78
2018-05-15T01:30:36.802Z,4.77
2018-05-15T01:31:37.270Z,4.76
2018-05-15T01:32:37.942Z,4.76
2018-05-15T01:33:38.211Z,4.76
2018-05-15T01:34:38.681Z,4.74
2018-05-15T01:35:39.150Z,4.73
2018-05-15T01:36:39.620Z,4.72
2018-05-15T01:37:40.142Z,4.72
2018-05-15T01:38:40.567Z,4.71
2018-05-15T01:39:41.036Z,4.70
2018-05-15T01:40:41.505Z,4.69
2018-05-15T01:41:41.976Z,4.70
2018-05-15T01:42:42.454Z,4.70
2018-05-15T01:43:42.920Z,4.68
2018-05-15T01:44:43.389Z,4.68
2018-05-15T01:45:43.864Z,4.66
2018-05-15T01:46:44.334Z,4.67
2018-05-15T01:47:44.811Z,4.66
2018-05-15T01:48:45.280Z,4.65
2018-05-15T01:49:45.750Z,4.64
2018-05-15T01:50:46.222Z,4.64
2018-05-15T01:51:46.695Z,4.64
2018-05-15T01:52:47.166Z,4.64
2018-05-15T01:53:47.641Z,4.62
2018-05-15T01:54:48.111Z,4.62
2018-05-15T01:55:48.622Z,4.61
2018-05-15T01:56:49.053Z,4.61
2018-05-15T01:57:49.577Z,4.62
2018-05-15T01:58:50.000Z,4.60
2018-05-15T01:59:50.473Z,4.60
2018-05-15T02:00:50.946Z,4.60
2018-05-15T02:01:51.416Z,4.60
2018-05-15T02:02:51.895Z,4.60
2018-05-15T02:03:52.365Z,4.58
2018-05-15T02:04:52.836Z,4.58
2018-05-15T02:05:53.311Z,4.56
2018-05-15T02:06:53.782Z,4.56
2018-05-15T02:07:54.308Z,4.56
2018-05-15T02:08:54.729Z,4.55
2018-05-15T02:09:55.205Z,4.55
2018-05-15T02:10:55.678Z,4.54
2018-05-15T02:11:56.152Z,4.53
2018-05-15T02:12:56.674Z,4.52
2018-05-15T02:13:57.097Z,4.52
2018-05-15T02:14:57.576Z,4.53
2018-05-15T02:15:58.058Z,4.52
2018-05-15T02:16:58.521Z,4.52
2018-05-15T02:17:58.993Z,4.51
2018-05-15T02:18:59.472Z,4.50
2018-05-15T02:19:59.943Z,4.50
2018-05-15T02:21:00.417Z,4.48
2018-05-15T02:22:00.891Z,4.48
2018-05-15T02:23:01.364Z,4.47
2018-05-15T02:24:01.843Z,4.47
2018-05-15T02:25:02.311Z,4.46
2018-05-15T02:26:02.785Z,4.46
2018-05-15T02:27:03.463Z,4.46
2018-05-15T02:28:03.736Z,4.46
2018-05-15T02:29:04.208Z,4.46
2018-05-15T02:30:04.681Z,4.46
2018-05-15T02:31:05.159Z,4.45
2018-05-15T02:32:05.632Z,4.44
2018-05-15T02:33:06.103Z,4.43
2018-05-15T02:34:06.578Z,4.44
2018-05-15T02:35:07.053Z,4.42
2018-05-15T02:36:07.525Z,4.42
2018-05-15T02:37:07.997Z,4.42
2018-05-15T02:38:08.523Z,4.42
2018-05-15T02:39:08.943Z,4.41
2018-05-15T02:40:09.417Z,4.40
2018-05-15T02:41:09.886Z,4.40
2018-05-15T02:42:10.360Z,4.38
2018-05-15T02:43:10.832Z,4.37
2018-05-15T02:44:11.304Z,4.38
2018-05-15T02:45:11.773Z,4.36
2018-05-15T02:46:13.444Z,4.36
2018-05-15T02:47:12.718Z,4.36
2018-05-15T02:48:13.237Z,4.34
2018-05-15T02:49:13.663Z,4.35
2018-05-15T02:50:14.129Z,4.34
2018-05-15T02:51:14.600Z,4.34
2018-05-15T02:52:15.072Z,4.34
2018-05-15T02:53:15.594Z,4.32
2018-05-15T02:54:16.009Z,4.33
2018-05-15T02:55:16.480Z,4.30
2018-05-15T02:56:16.951Z,4.30
2018-05-15T02:57:17.426Z,4.30
2018-05-15T02:58:17.890Z,4.30
2018-05-15T02:59:18.363Z,4.30
2018-05-15T03:00:18.837Z,4.28
2018-05-15T03:01:19.300Z,4.28
2018-05-15T03:02:19.772Z,4.27
2018-05-15T03:03:20.293Z,4.26
2018-05-15T03:04:20.712Z,4.26
2018-05-15T03:05:21.182Z,4.26
2018-05-15T03:06:21.660Z,4.24
2018-05-15T03:07:22.123Z,4.24
2018-05-15T03:08:22.595Z,4.24
2018-05-15T03:09:23.064Z,4.24
2018-05-15T03:10:23.535Z,4.23
2018-05-15T03:11:24.006Z,4.22
2018-05-15T03:12:24.679Z,4.21
2018-05-15T03:13:25.002Z,4.21
2018-05-15T03:14:25.421Z,4.21
2018-05-15T03:15:25.891Z,4.20
2018-05-15T03:16:26.363Z,4.20
2018-05-15T03:17:26.831Z,4.20
2018-05-15T03:18:27.353Z,4.20
2018-05-15T03:19:27.775Z,4.18
2018-05-15T03:20:28.246Z,4.17
2018-05-15T03:21:28.718Z,4.16
2018-05-15T03:22:29.191Z,4.17
2018-05-15T03:23:29.660Z,4.16
2018-05-15T03:24:30.132Z,4.14
2018-05-15T03:25:30.608Z,4.14
2018-05-15T03:26:31.076Z,4.14
2018-05-15T03:27:31.550Z,4.14
2018-05-15T03:28:32.025Z,4.14
2018-05-15T03:29:32.494Z,4.13
2018-05-15T03:30:32.973Z,4.12
2018-05-15T03:31:33.438Z,4.10
2018-05-15T03:32:33.911Z,4.12
2018-05-15T03:33:34.385Z,4.11
2018-05-15T03:34:34.855Z,4.09
2018-05-15T03:35:35.327Z,4.08
2018-05-15T03:36:35.806Z,4.09
2018-05-15T03:37:36.275Z,4.08
2018-05-15T03:38:36.798Z,4.07
2018-05-15T03:39:37.221Z,4.08
2018-05-15T03:40:37.693Z,4.06
2018-05-15T03:41:38.166Z,4.05
2018-05-15T03:42:38.638Z,4.06
2018-05-15T03:43:39.110Z,4.04
2018-05-15T03:44:39.585Z,4.04
2018-05-15T03:45:40.059Z,4.04
2018-05-15T03:46:40.532Z,4.04
2018-05-15T03:47:41.005Z,4.02
2018-05-15T03:48:41.481Z,4.02
2018-05-15T03:49:41.950Z,4.02
2018-05-15T03:50:42.428Z,4.01
2018-05-15T03:51:42.901Z,4.01
2018-05-15T03:52:43.374Z,4.00
2018-05-15T03:53:43.895Z,3.99
2018-05-15T03:54:44.323Z,4.00
2018-05-15T03:55:44.795Z,3.99
2018-05-15T03:56:45.269Z,4.00
2018-05-15T03:57:45.741Z,3.99
2018-05-15T03:58:46.214Z,3.98
2018-05-15T03:59:46.693Z,3.97
2018-05-15T04:00:47.162Z,3.98
2018-05-15T04:01:47.635Z,3.96
2018-05-15T04:02:48.110Z,3.96
2018-05-15T04:03:48.583Z,3.94
2018-05-15T04:04:49.059Z,3.95
2018-05-15T04:05:49.532Z,3.94
2018-05-15T04:06:50.006Z,3.94
2018-05-15T04:07:50.481Z,3.95
2018-05-15T04:08:50.957Z,3.94
2018-05-15T04:09:51.431Z,3.93
2018-05-15T04:10:51.972Z,3.93
2018-05-15T04:11:52.379Z,3.92
2018-05-15T04:12:52.852Z,3.92
2018-05-15T04:13:53.333Z,3.92
2018-05-15T04:14:53.800Z,3.90
2018-05-15T04:15:54.275Z,3.90
2018-05-15T04:16:54.749Z,3.90
2018-05-15T04:17:55.227Z,3.90
2018-05-15T04:18:55.746Z,3.90
2018-05-15T04:19:56.169Z,3.88
2018-05-15T04:20:56.643Z,3.88
2018-05-15T04:21:57.116Z,3.86
2018-05-15T04:22:57.590Z,3.86
2018-05-15T04:23:58.060Z,3.86
2018-05-15T04:24:58.533Z,3.85
2018-05-15T04:25:59.005Z,3.84
2018-05-15T04:26:59.476Z,3.84
2018-05-15T04:27:59.959Z,3.84
2018-05-15T04:29:00.484Z,3.84
2018-05-15T04:30:00.892Z,3.83
2018-05-15T04:31:01.364Z,3.82
2018-05-15T04:32:01.834Z,3.82
2018-05-15T04:33:02.307Z,3.82
2018-05-15T04:34:02.779Z,3.82
2018-05-15T04:35:03.318Z,3.82
2018-05-15T04:36:03.716Z,3.80
2018-05-15T04:37:04.187Z,3.80
2018-05-15T04:38:04.657Z,3.78
2018-05-15T04:39:05.126Z,3.77
2018-05-15T04:40:05.597Z,3.78
2018-05-15T04:41:06.066Z,3.76
2018-05-15T04:42:06.537Z,3.76
2018-05-15T04:43:07.007Z,3.74
2018-05-15T04:44:07.528Z,3.74
2018-05-15T04:45:07.948Z,3.74
2018-05-15T04:46:08.418Z,3.72
2018-05-15T04:47:08.887Z,3.71
2018-05-15T04:48:09.363Z,3.71
2018-05-15T04:49:09.833Z,3.72
2018-05-15T04:50:10.297Z,3.69
2018-05-15T04:51:10.771Z,3.68
2018-05-15T04:52:11.239Z,3.68
2018-05-15T04:53:11.709Z,3.68
2018-05-15T04:54:12.230Z,3.68
2018-05-15T04:55:12.651Z,3.66
2018-05-15T04:56:13.122Z,3.65
2018-05-15T04:57:13.590Z,3.66
2018-05-15T04:58:14.063Z,3.64
2018-05-15T04:59:14.586Z,3.63
2018-05-15T05:00:15.006Z,3.64
2018-05-15T05:01:15.475Z,3.63
2018-05-15T05:02:15.945Z,3.62
2018-05-15T05:03:16.415Z,3.65
2018-05-15T05:04:16.939Z,3.60
2018-05-15T05:05:17.359Z,3.60
2018-05-15T05:06:17.830Z,3.62
2018-05-15T05:07:18.302Z,3.61
2018-05-15T05:08:18.775Z,3.60
2018-05-15T05:09:19.297Z,3.60
2018-05-15T05:10:19.717Z,3.58
2018-05-15T05:11:20.189Z,3.58
2018-05-15T05:12:20.660Z,3.58
2018-05-15T05:13:21.132Z,3.56
2018-05-15T05:14:21.605Z,3.56
2018-05-15T05:15:22.076Z,3.54
2018-05-15T05:16:22.547Z,3.56
2018-05-15T05:17:23.021Z,3.54
2018-05-15T05:18:23.493Z,3.54
2018-05-15T05:19:23.966Z,3.54
2018-05-15T05:20:24.439Z,3.54
2018-05-15T05:21:24.911Z,3.53
2018-05-15T05:22:25.381Z,3.52
2018-05-15T05:23:25.855Z,3.51
2018-05-15T05:24:26.377Z,3.52
2018-05-15T05:25:26.801Z,3.50
2018-05-15T05:26:27.273Z,3.50
2018-05-15T05:27:27.746Z,3.50
2018-05-15T05:28:28.219Z,3.48
2018-05-15T05:29:28.693Z,3.48
2018-05-15T05:30:29.163Z,3.48
2018-05-15T05:31:29.637Z,3.48
2018-05-15T05:32:30.111Z,3.50
2018-05-15T05:33:30.587Z,3.47
2018-05-15T05:34:31.057Z,3.45
2018-05-15T05:35:31.529Z,3.46
2018-05-15T05:36:32.003Z,3.48
2018-05-15T05:37:32.477Z,3.46
2018-05-15T05:38:32.955Z,3.46
2018-05-15T05:39:33.422Z,3.42
2018-05-15T05:40:33.896Z,3.44
2018-05-15T05:41:34.371Z,3.44
2018-05-15T05:42:34.844Z,3.44
2018-05-15T05:43:35.315Z,3.43
2018-05-15T05:44:35.792Z,3.44
2018-05-15T05:45:36.264Z,3.42
2018-05-15T05:46:36.739Z,3.42
2018-05-15T05:47:37.211Z,3.40
2018-05-15T05:48:37.687Z,3.40
2018-05-15T05:49:38.207Z,3.42
2018-05-15T05:50:38.631Z,3.40
2018-05-15T05:51:39.105Z,3.42
2018-05-15T05:52:39.580Z,3.40
2018-05-15T05:53:40.053Z,3.36
2018-05-15T05:54:40.577Z,3.41
2018-05-15T05:55:40.999Z,3.38
2018-05-15T05:56:41.473Z,3.38
2018-05-15T05:57:41.948Z,3.39
2018-05-15T05:58:42.424Z,3.39
2018-05-15T05:59:42.946Z,3.38
2018-05-15T06:00:43.369Z,3.36
2018-05-15T06:01:43.843Z,3.35
2018-05-15T06:02:44.316Z,3.35
2018-05-15T06:03:44.792Z,3.36
2018-05-15T06:04:45.265Z,3.34
2018-05-15T06:05:45.744Z,3.38
2018-05-15T06:06:46.214Z,3.34
2018-05-15T06:07:46.689Z,3.32
2018-05-15T06:08:47.163Z,3.32
2018-05-15T06:09:47.636Z,3.33
2018-05-15T06:10:48.111Z,3.32
2018-05-15T06:11:48.584Z,3.33
2018-05-15T06:12:49.059Z,3.34
2018-05-15T06:13:49.533Z,3.32
2018-05-15T06:14:50.006Z,3.31
2018-05-15T06:15:50.481Z,3.31
2018-05-15T06:16:50.955Z,3.30
2018-05-15T06:17:51.428Z,3.28
2018-05-15T06:18:51.902Z,3.28
2018-05-15T06:19:52.385Z,3.28
2018-05-15T06:20:52.858Z,3.29
2018-05-15T06:21:53.328Z,3.26
2018-05-15T06:22:53.801Z,3.26
2018-05-15T06:23:54.272Z,3.26
2018-05-15T06:24:54.747Z,3.30
2018-05-15T06:25:55.223Z,3.24
2018-05-15T06:26:55.695Z,3.24
2018-05-15T06:27:56.172Z,3.25
2018-05-15T06:28:56.645Z,3.24
2018-05-15T06:29:57.169Z,3.24
2018-05-15T06:30:57.593Z,3.24
2018-05-15T06:31:58.067Z,3.22
2018-05-15T06:32:58.542Z,3.22
2018-05-15T06:33:59.014Z,3.22
2018-05-15T06:34:59.536Z,3.18
2018-05-15T06:35:59.962Z,3.22
2018-05-15T06:37:00.433Z,3.22
2018-05-15T06:38:00.904Z,3.20
2018-05-15T06:39:01.382Z,3.19
2018-05-15T06:40:01.900Z,3.22
2018-05-15T06:41:02.321Z,3.16
2018-05-15T06:42:02.795Z,3.18
2018-05-15T06:43:03.265Z,3.18
2018-05-15T06:44:03.739Z,3.20
2018-05-15T06:45:04.207Z,3.20
2018-05-15T06:46:04.682Z,3.19
2018-05-15T06:47:05.151Z,3.17
2018-05-15T06:48:05.619Z,3.15
2018-05-15T06:49:06.091Z,3.16
2018-05-15T06:50:06.561Z,3.17
2018-05-15T06:51:07.037Z,3.13
2018-05-15T06:52:07.502Z,3.14
2018-05-15T06:53:07.972Z,3.16
2018-05-15T06:54:08.446Z,3.15
2018-05-15T06:55:08.963Z,3.14
2018-05-15T06:56:09.383Z,3.08
2018-05-15T06:57:09.852Z,3.12
2018-05-15T06:58:10.324Z,3.14
2018-05-15T06:59:10.793Z,3.14
2018-05-15T07:00:11.265Z,3.14
2018-05-15T07:01:11.733Z,3.12
2018-05-15T07:02:12.208Z,3.14
2018-05-15T07:03:12.674Z,3.14
2018-05-15T07:04:13.144Z,3.13
2018-05-15T07:05:13.617Z,3.12
2018-05-15T07:06:14.087Z,3.12
2018-05-15T07:07:14.555Z,3.15
2018-05-15T07:08:15.026Z,3.14
2018-05-15T07:09:15.495Z,3.12
2018-05-15T07:10:15.967Z,3.12
2018-05-15T07:11:16.437Z,3.12
2018-05-15T07:12:16.906Z,3.11
2018-05-15T07:13:17.379Z,3.12
2018-05-15T07:14:17.857Z,3.12
2018-05-15T07:15:18.322Z,3.10
2018-05-15T07:16:18.869Z,3.13
2018-05-15T07:17:19.264Z,3.10
2018-05-15T07:18:19.935Z,3.09
2018-05-15T07:19:20.203Z,3.10
2018-05-15T07:20:20.678Z,3.13
2018-05-15T07:21:21.147Z,3.10
2018-05-15T07:22:21.618Z,3.12
2018-05-15T07:23:22.093Z,3.09
2018-05-15T07:24:22.560Z,3.13
2018-05-15T07:25:23.033Z,3.12
2018-05-15T07:26:23.504Z,3.11
2018-05-15T07:27:24.067Z,3.12
2018-05-15T07:28:24.448Z,3.10
2018-05-15T07:29:24.923Z,3.10
2018-05-15T07:30:25.391Z,3.10
2018-05-15T07:31:25.862Z,3.09
2018-05-15T07:32:26.336Z,3.11
2018-05-15T07:33:26.811Z,3.08
2018-05-15T07:34:27.283Z,3.08
2018-05-15T07:35:27.752Z,3.11
2018-05-15T07:36:28.224Z,3.10
2018-05-15T07:37:28.698Z,3.09
2018-05-15T07:38:29.171Z,3.10
2018-05-15T07:39:29.646Z,3.08
2018-05-15T07:40:30.117Z,3.10
2018-05-15T07:41:30.588Z,3.10
2018-05-15T07:42:31.059Z,3.10
2018-05-15T07:43:31.534Z,3.12
2018-05-15T07:44:32.008Z,3.08
2018-05-15T07:45:32.529Z,3.11
2018-05-15T07:46:32.952Z,3.10
2018-05-15T07:47:33.425Z,3.10
2018-05-15T07:48:33.901Z,3.10
2018-05-15T07:49:34.371Z,3.10
2018-05-15T07:50:34.894Z,3.08
2018-05-15T07:51:35.316Z,3.12
2018-05-15T07:52:35.790Z,3.13
2018-05-15T07:53:36.271Z,3.11
2018-05-15T07:54:36.738Z,3.10
2018-05-15T07:55:37.260Z,3.12
2018-05-15T07:56:37.794Z,3.14
2018-05-15T07:57:38.155Z,3.12
2018-05-15T07:58:38.632Z,3.14
2018-05-15T07:59:39.103Z,3.12
2018-05-15T08:00:39.627Z,3.14
2018-05-15T08:01:40.051Z,3.14
2018-05-15T08:02:40.524Z,3.12
2018-05-15T08:03:40.997Z,3.14
2018-05-15T08:04:41.474Z,3.16
2018-05-15T08:05:41.995Z,3.14
2018-05-15T08:06:42.419Z,3.16
2018-05-15T08:07:42.893Z,3.18
2018-05-15T08:08:43.370Z,3.18
2018-05-15T08:09:43.840Z,3.20
2018-05-15T08:10:44.313Z,3.20
2018-05-15T08:11:44.789Z,3.18
2018-05-15T08:12:45.261Z,3.20
2018-05-15T08:13:45.738Z,3.22
2018-05-15T08:14:46.210Z,3.22
2018-05-15T08:15:46.684Z,3.23
2018-05-15T08:16:47.157Z,3.24
2018-05-15T08:17:47.632Z,3.27
2018-05-15T08:18:48.106Z,3.23
2018-05-15T08:19:48.580Z,3.24
2018-05-15T08:20:49.054Z,3.26
2018-05-15T08:22:45.282Z,3.26
2018-05-15T08:23:45.758Z,3.28
2018-05-15T08:24:46.233Z,3.28
2018-05-15T08:25:46.705Z,3.30
2018-05-15T08:26:47.250Z,3.30
2018-05-15T08:27:47.651Z,3.31
2018-05-15T08:28:48.124Z,3.28
2018-05-15T08:29:48.602Z,3.30
2018-05-15T08:30:49.127Z,3.30
2018-05-15T08:31:49.552Z,3.30
2018-05-15T08:32:50.024Z,3.30
2018-05-15T08:33:50.498Z,3.31
2018-05-15T08:34:50.971Z,3.34
2018-05-15T08:35:51.448Z,3.32
2018-05-15T08:36:51.919Z,3.34
2018-05-15T08:37:52.396Z,3.34
2018-05-15T08:38:52.871Z,3.34
2018-05-15T08:39:53.686Z,3.36
2018-05-15T08:40:53.821Z,3.36
2018-05-15T08:41:54.342Z,3.38
2018-05-15T08:42:54.765Z,3.38
2018-05-15T08:43:55.238Z,3.40
2018-05-15T08:44:55.711Z,3.40
2018-05-15T08:45:56.185Z,3.41
2018-05-15T08:46:56.660Z,3.40
2018-05-15T08:47:57.133Z,3.42
2018-05-15T08:48:57.604Z,3.44
2018-05-15T08:49:58.078Z,3.44
2018-05-15T08:50:58.549Z,3.44
2018-05-15T08:51:59.021Z,3.45
2018-05-15T08:52:59.493Z,3.47
2018-05-15T08:53:59.968Z,3.48
2018-05-15T08:55:00.437Z,3.48
2018-05-15T08:56:00.908Z,3.50
2018-05-15T08:57:01.383Z,3.52
2018-05-15T08:58:01.849Z,3.51
2018-05-15T08:59:02.320Z,3.54
2018-05-15T09:00:02.794Z,3.53
2018-05-15T09:01:03.264Z,3.56
2018-05-15T09:02:03.737Z,3.55
2018-05-15T09:03:04.205Z,3.58
2018-05-15T09:04:04.673Z,3.57
2018-05-15T09:06:05.615Z,3.58
2018-05-15T09:07:06.136Z,3.60
2018-05-15T09:08:06.557Z,3.62
2018-05-15T09:09:07.027Z,3.62
2018-05-15T09:10:07.502Z,3.61
2018-05-15T09:11:07.969Z,3.61
2018-05-15T09:12:08.440Z,3.64
2018-05-15T09:13:08.911Z,3.64
2018-05-15T09:14:09.380Z,3.64
2018-05-15T09:15:09.850Z,3.66
2018-05-15T09:16:10.319Z,3.66
2018-05-15T09:17:10.792Z,3.67
2018-05-15T09:18:11.272Z,3.69
2018-05-15T09:19:11.834Z,3.68
2018-05-15T09:20:12.203Z,3.69
2018-05-15T09:21:12.674Z,3.68
2018-05-15T09:22:13.147Z,3.70
2018-05-15T09:23:13.615Z,3.70
2018-05-15T09:24:14.087Z,3.72
2018-05-15T09:25:14.562Z,3.70
2018-05-15T09:26:15.033Z,3.72
2018-05-15T09:27:15.503Z,3.71
2018-05-15T09:28:15.974Z,3.74
2018-05-15T09:29:16.534Z,3.74
2018-05-15T09:30:16.917Z,3.74
2018-05-15T09:31:17.389Z,3.74
2018-05-15T09:32:17.861Z,3.74
2018-05-15T09:33:18.335Z,3.75
2018-05-15T09:34:18.805Z,3.75
2018-05-15T09:35:19.278Z,3.76
2018-05-15T09:36:19.824Z,3.74
2018-05-15T09:37:20.272Z,3.76
2018-05-15T09:38:20.695Z,3.75
2018-05-15T09:39:21.168Z,3.74
2018-05-15T09:40:21.645Z,3.76
2018-05-15T09:41:22.113Z,3.76
2018-05-15T09:42:22.587Z,3.78
2018-05-15T09:43:23.060Z,3.77
2018-05-15T09:44:23.532Z,3.76
2018-05-15T09:45:24.006Z,3.77
2018-05-15T09:46:24.480Z,3.76
2018-05-15T09:47:25.002Z,3.78
2018-05-15T09:48:25.421Z,3.78
2018-05-15T09:49:25.898Z,3.79
2018-05-15T09:50:26.370Z,3.78
2018-05-15T09:51:26.843Z,3.79
2018-05-15T09:52:27.368Z,3.80
2018-05-15T09:53:27.790Z,3.78
2018-05-15T09:54:28.262Z,3.81
2018-05-15T09:55:28.738Z,3.83
2018-05-15T09:56:29.211Z,3.82
2018-05-15T09:57:29.735Z,3.84
2018-05-15T09:58:30.159Z,3.84
2018-05-15T09:59:30.633Z,3.86
2018-05-15T10:00:31.109Z,3.88
2018-05-15T10:01:31.582Z,3.89
2018-05-15T10:02:32.055Z,3.91
2018-05-15T10:03:32.543Z,3.94
2018-05-15T10:04:33.002Z,3.94
2018-05-15T10:05:33.478Z,3.95
2018-05-15T10:06:33.951Z,3.98
2018-05-15T10:07:34.558Z,3.98
2018-05-15T10:08:34.903Z,4.01
2018-05-15T10:09:35.378Z,4.03
2018-05-15T10:10:35.850Z,4.04
2018-05-15T10:11:36.327Z,4.05
2018-05-15T10:12:36.848Z,4.07
2018-05-15T10:13:37.273Z,4.10
2018-05-15T10:14:37.748Z,4.10
2018-05-15T10:15:38.224Z,4.10
2018-05-15T10:16:38.696Z,4.12
2018-05-15T10:17:39.171Z,4.14
2018-05-15T10:18:39.648Z,4.15
2018-05-15T10:19:40.121Z,4.14
2018-05-15T10:20:40.594Z,4.18
2018-05-15T10:21:41.072Z,4.18
2018-05-15T10:22:41.572Z,4.20
2018-05-15T10:23:42.222Z,4.20
2018-05-15T10:24:42.492Z,4.22
2018-05-15T10:25:42.965Z,4.23
2018-05-15T10:26:43.439Z,4.24
2018-05-15T10:27:43.911Z,4.26
2018-05-15T10:28:44.387Z,4.27
2018-05-15T10:29:44.867Z,4.28
2018-05-15T10:30:45.338Z,4.28
2018-05-15T10:31:45.804Z,4.29
2018-05-15T10:32:46.276Z,4.30
2018-05-15T10:33:46.746Z,4.29
2018-05-15T10:34:47.219Z,4.31
2018-05-15T10:35:47.690Z,4.32
2018-05-15T10:36:48.161Z,4.32
2018-05-15T10:37:48.633Z,4.34
2018-05-15T10:38:49.107Z,4.34
2018-05-15T10:39:49.576Z,4.33
2018-05-15T10:40:50.053Z,4.36
2018-05-15T10:41:50.518Z,4.36
2018-05-15T10:42:50.993Z,4.36
2018-05-15T10:43:51.469Z,4.39
2018-05-15T10:44:51.929Z,4.39
2018-05-15T10:45:52.400Z,4.40
2018-05-15T10:46:52.871Z,4.42
2018-05-15T10:47:53.341Z,4.44
2018-05-15T10:48:53.811Z,4.44
2018-05-15T10:49:54.283Z,4.47
2018-05-15T10:50:54.757Z,4.48
2018-05-15T10:51:55.224Z,4.48
2018-05-15T10:52:55.745Z,4.49
2018-05-15T10:53:56.166Z,4.50
2018-05-15T10:54:56.637Z,4.53
2018-05-15T10:55:57.111Z,4.54
2018-05-15T10:56:57.581Z,4.57
2018-05-15T10:57:58.049Z,4.58
2018-05-15T10:58:58.522Z,4.60
2018-05-15T10:59:58.992Z,4.60
2018-05-15T11:00:59.464Z,4.62
2018-05-15T11:01:59.935Z,4.64
2018-05-15T11:03:00.464Z,4.66
2018-05-15T11:04:00.880Z,4.68
2018-05-15T11:05:01.353Z,4.70
2018-05-15T11:06:01.875Z,4.71
2018-05-15T11:07:02.304Z,4.73
2018-05-15T11:08:02.770Z,4.75
2018-05-15T11:09:03.238Z,4.79
2018-05-15T11:10:03.714Z,4.80
2018-05-15T11:11:04.388Z,4.82
2018-05-15T11:12:04.664Z,4.84
2018-05-15T11:13:05.132Z,4.86
2018-05-15T11:14:05.604Z,4.88
2018-05-15T11:15:06.077Z,4.91
2018-05-15T11:16:06.555Z,4.94
2018-05-15T11:17:07.024Z,4.96
2018-05-15T11:18:07.499Z,4.98
2018-05-15T11:19:07.973Z,5.02
2018-05-15T11:20:08.445Z,5.04
2018-05-15T11:21:08.918Z,5.07
2018-05-15T11:22:09.397Z,5.10
2018-05-15T11:23:09.867Z,5.13
2018-05-15T11:24:10.343Z,5.16
2018-05-15T11:25:10.815Z,5.20
2018-05-15T11:26:11.290Z,5.24
2018-05-15T11:27:11.767Z,5.28
2018-05-15T11:28:12.290Z,5.32
2018-05-15T11:29:12.714Z,5.35
2018-05-15T11:30:13.188Z,5.38
2018-05-15T11:31:13.666Z,5.43
2018-05-15T11:32:14.140Z,5.46
2018-05-15T11:33:14.614Z,5.48
2018-05-15T11:34:15.089Z,5.53
2018-05-15T11:35:15.564Z,5.57
2018-05-15T11:36:16.040Z,5.60
2018-05-15T11:37:16.517Z,5.64
2018-05-15T11:38:17.041Z,5.66
2018-05-15T11:39:17.463Z,5.71
2018-05-15T11:40:17.975Z,5.74
2018-05-15T11:41:18.413Z,5.79
2018-05-15T11:42:18.887Z,5.82
2018-05-15T11:43:19.362Z,5.85
2018-05-15T11:44:19.839Z,5.90
2018-05-15T11:45:20.310Z,5.94
2018-05-15T11:46:20.788Z,5.99
2018-05-15T11:47:21.492Z,6.02
2018-05-15T11:48:22.333Z,6.06
2018-05-15T11:49:23.156Z,6.09
2018-05-15T11:50:23.576Z,6.14
2018-05-15T11:51:23.497Z,6.18
2018-05-15T11:52:24.367Z,6.21
2018-05-15T11:53:24.148Z,6.25
2018-05-15T11:54:24.574Z,6.29
2018-05-15T11:55:25.041Z,6.33
2018-05-15T11:56:25.581Z,6.38
2018-05-15T11:57:25.984Z,6.42
2018-05-15T11:58:26.456Z,6.46
2018-05-15T11:59:26.928Z,6.50
2018-05-15T12:00:27.400Z,6.54
2018-05-15T12:01:27.869Z,6.59
2018-05-15T12:02:28.446Z,6.61
2018-05-15T12:03:28.815Z,6.66
2018-05-15T12:04:29.287Z,6.72
2018-05-15T12:05:29.758Z,6.75
2018-05-15T12:06:30.245Z,6.80
2018-05-15T12:07:30.703Z,6.84
2018-05-15T12:08:31.325Z,6.88
2018-05-15T12:09:31.642Z,6.93
2018-05-15T12:10:32.187Z,6.97
2018-05-15T12:11:32.587Z,7.01
2018-05-15T12:12:33.060Z,7.06
2018-05-15T12:13:33.583Z,7.10
2018-05-15T12:15:34.476Z,7.18
2018-05-15T12:16:34.948Z,7.22
2018-05-15T12:17:35.421Z,7.24
2018-05-15T12:19:36.365Z,7.32
2018-05-15T12:20:36.839Z,7.38
2018-05-15T12:21:37.311Z,7.40
2018-05-15T12:22:37.784Z,7.44
2018-05-15T12:23:38.258Z,7.47
2018-05-15T12:24:38.797Z,7.50
2018-05-15T12:25:39.203Z,7.53
2018-05-15T12:26:39.676Z,7.56
2018-05-15T12:27:40.150Z,7.59
2018-05-15T12:28:40.676Z,7.60
2018-05-15T12:29:41.098Z,7.63
2018-05-15T12:30:41.573Z,7.66
2018-05-15T12:32:42.521Z,7.70
2018-05-15T12:33:42.994Z,7.71
2018-05-15T12:34:43.468Z,7.74
2018-05-15T12:35:43.954Z,7.75
2018-05-15T12:36:44.494Z,7.78
2018-05-15T12:37:44.893Z,7.78
2018-05-15T12:38:45.371Z,7.79
2018-05-15T12:39:45.844Z,7.81
2018-05-15T12:40:46.318Z,7.84
2018-05-15T12:41:46.862Z,7.84
2018-05-15T12:42:47.268Z,7.86
2018-05-15T12:43:47.744Z,7.88
2018-05-15T12:44:48.219Z,7.90
2018-05-15T12:45:48.694Z,7.91
2018-05-15T12:47:49.849Z,7.94
2018-05-15T12:48:50.211Z,7.96
2018-05-15T12:49:50.592Z,7.98
2018-05-15T12:50:51.070Z,8.00
2018-05-15T12:51:51.543Z,8.02
2018-05-15T12:52:52.018Z,8.04
2018-05-15T12:53:52.492Z,8.04
2018-05-15T12:54:52.966Z,8.06
2018-05-15T12:55:53.440Z,8.09
2018-05-15T12:56:54.116Z,8.09
2018-05-15T12:57:54.387Z,8.10
2018-05-15T12:58:55.115Z,8.12
2018-05-15T12:59:55.339Z,8.14
2018-05-15T13:00:55.807Z,8.16
2018-05-15T13:01:56.279Z,8.16
2018-05-15T13:02:56.751Z,8.16
2018-05-15T13:03:57.229Z,8.18
2018-05-15T13:04:57.698Z,8.18
2018-05-15T13:05:58.170Z,8.20
2018-05-15T13:06:58.645Z,8.21
2018-05-15T13:07:59.115Z,8.20
2018-05-15T13:08:59.588Z,8.22
2018-05-15T13:10:00.062Z,8.20
2018-05-15T13:11:00.527Z,8.20
2018-05-15T13:12:01.206Z,8.22
2018-05-15T13:13:01.472Z,8.22
2018-05-15T13:14:01.993Z,8.22
2018-05-15T13:15:02.414Z,8.22
2018-05-15T13:16:02.885Z,8.24
2018-05-15T13:17:03.356Z,8.22
2018-05-15T13:18:03.824Z,8.22
2018-05-15T13:19:04.299Z,8.22
2018-05-15T13:20:04.772Z,8.20
2018-05-15T13:21:05.241Z,8.21
2018-05-15T13:22:05.712Z,8.21
2018-05-15T13:23:06.185Z,8.21
2018-05-15T13:24:06.656Z,8.20
2018-05-15T13:25:07.128Z,8.20
2018-05-15T13:26:07.598Z,8.21
2018-05-15T13:27:08.071Z,8.21
2018-05-15T13:28:08.544Z,8.20
2018-05-15T13:29:09.064Z,8.20
2018-05-15T13:30:09.486Z,8.22
2018-05-15T13:31:09.958Z,8.21
2018-05-15T13:32:10.433Z,8.22
2018-05-15T13:33:10.904Z,8.22
2018-05-15T13:34:11.379Z,8.22